Airfield :
LOGIN :

Register | Disclaimer

   EN    FR    IT 

 










Legend :    VFR   Marginal VFR   IFR   Intensive IFR   Very Intensive IFR
Visi :
Ceiling :
>= 8 km
>= 3000ft
5 to 8 km
1000 to 3000 ft
1500m to 5 km
500 to 1000 ft
800 to 1500m
200 to 500 ft
< 800m
< 200 ft
Symbols :   Thunderstorms  Fog  Heavy snow  Heavy precipitations  Wind > 20 kt
SIGMETs :     Misc.  Thunderstorms  Icing  Turbulence  Mountain Waves  Volcanic Ashes







- Airport Elevation : 357 ft
- IATA code : TUF
- Download approach charts


LFOT - Tours

CURRENT METAR :
  • 261230Z AUTO 22008KT 2100 -RA BR OVC005 19/18 Q1014 BECMG 9999 NSW BKN020

EXPIRED METARs :
  • 261200Z AUTO 20008KT 170V240 3400 -RA BR OVC005 18/18 Q1014 NOSIG
  • 261130Z AUTO 20008KT 4400 -RA BR OVC005 18/17 Q1014 TEMPO 9999 -RA SCT012 BKN025
  • 261100Z AUTO 20009KT 2900 -RA BR OVC005 18/17 Q1014 BECMG 9999 -RA SCT012 BKN025
  • 261030Z AUTO 21008KT 180V240 4000 -RA BR BKN008 BKN014 BKN021 18/17 Q1014 BECMG 9999 -RA SCT012 BKN025
  • 261000Z AUTO 23010KT 190V250 6000 -RA OVC016 19/16 Q1014 NOSIG
  • 260930Z AUTO 21008KT 180V240 9999 OVC018 19/16 Q1014 NOSIG

TAF TAF LFOT
Valid from the 26 at 12:00 until the 27 at 12:00 UTC


261100Z 2612/2712 22010KT 9999 BKN020
TEMPO 2612/2614 3000 -RA BKN006
TEMPO 2700/2712 4000 -RA BKN008
No reported NOTAMs for that airfield.



MET'MAP, your aeronautical weather chart ! - Copyright ORBIFLY December 2007 - Disclaimer

ORBIFLY MET'MAP TEAM :

Programming & Development : Alexandra Zaïnal
Concept & Development : Baudouin d'Aumeries
Co-Development & Prog : Marc-Olivier Méhu
Technical & hardware support : Manuel Goepfert

Contact : metmap@orbifly.com




SOURCES & CREDITS :

   NOAA